KHBI

Details ICAO KHBI
Name Asheboro Rgnl
Region United States
Timezone America/New_York (UTC-5.0)
Plans Departing 0
Arriving 4
Stats Elevation 673 ft / 205 m (AMSL)
Location 35.654528° -79.894738°
Runways 1
Magnetic Variation 8.445° W
Sunrise 2017-12-13 12:22:09 UTC / 2017-12-13 07:22:09 Local
Sunset 2017-12-13 22:08:27 UTC / 2017-12-13 17:08:27 Local
Advertisement - Login to hide

Runways

ID Width Length Bearing (true) Bearing (mag) Surface Threshold Offset Overrun Length
03 100 ft / 30 m 5,512 ft / 1,680 m 21.47° 29.92° Asphalt 0 ft / 0 m 0 ft / 0 m
21 100 ft / 30 m 5,512 ft / 1,680 m 201.47° 209.92° Asphalt 0 ft / 0 m 0 ft / 0 m

Map

Weather


0- 5 10 15 20 25 30 35+ Temperature / ° C

Clouds and Precipitation
Forecast for 2017-12-13 06:00 UTC. Updated 30 minutes ago

Ground ~20,000 ft ~40,000 ft Winds

METAR

KHBI 130540Z AUTO 32007KT 10SM CLR M01/M14 A2987 RMK AO2 T10111139

TAF

Not found

Frequencies

Recorded 119.27 MHz AWOS 3
Approach 118.50 MHz GREENSBORO APP/DEP
Unicom 122.80 MHz CTAF/UNICOM
Warning: Do not use this data for real-world aviation or navigation. No guarantee of current accuracy is given.